Página principal
METAR-TAF:

METAR-TAF

Aeroportos :

Magnitogorsk, Rússia

latitude: 53-23-36N, longitude: 058-45-24E, altura: 436 m

Observação actual do tempo

O boletim foi feito há 35 minutos, às 16:30 UTC
Vento 4 kt de nor-nordeste
Temperatura 18°C
Humidade 64%
Pressão 1018 hPa
Visibilidade 10 km ou mais

METAR: USCM 231630Z 02002MPS 9999 NSC 18/11 Q1018 R36/090065 NOSIG RMK QFE725

Hora: 22:05 (17:05 UTC)

Previsão

O boletim foi feito há 3 horas e 5 minutos, às 14:00 UTC
Previsão válida de 23 às 15 UTC a 23 às 24 UTC
Vento 8 kt de norte
Visibilidade 10 km ou mais
Nuvens dispersasa uma altura de 4000 ft
Temporariamente
de 23 às 15 UTC a 23 às 18 UTC
Vento 12 kt de norte
Temporariamente
de 23 às 18 UTC a 23 às 24 UTC
Vento 6 kt de nor-nordeste
Visibilidade: 5000 m
neblina

TAF: USCM 231400Z 2315/2324 01004MPS 9999 SCT040 TEMPO 2315/2318 35006MPS TEMPO 2318/2324 03003MPS 5000 BR

Observações e previsões do tempo de mais de 4000 aeroportos (mensagens METAR e TAF).

As estações disponíveis são os pontos amarelos e vermelhos sobre o mapa.

Mova o rato sobre o mapa para ver o nome da estação.

Depois clique no ponto para visualizar as observações e previsões meteorológicas.

Para alterar o mapa : clique nos botões verdes com uma cruz preta para aumentar o zoom; no botão verde com uma pitada de zoom; ou nas setas verdes para mapas adjacentes.


METAR-TAF: